Time;durP1;ratioP1;P1;durP2;ratioP2;P2;SDS_P1;SDS_P2;PMS_P1;PMS_P2;Temp;Humidity;BMP_temperature;BMP_pressure;BME280_temperature;BME280_humidity;BME280_pressure;Samples;Min_cycle;Max_cycle;Signal;HPM_P1;HPM_P2
2022/12/06 00:01:34;;;;;;;223.97;120.85;;;;;;;2.50;100.00;98137.48;1702377;83;21032;-78
2022/12/06 00:04:08;;;;;;;226.85;126.47;;;;;;;2.49;100.00;98135.86;1686931;85;21414;-80
2022/12/06 00:06:37;;;;;;;225.53;119.65;;;;;;;2.49;100.00;98145.74;1687027;85;21104;-80
2022/12/06 00:09:03;;;;;;;205.07;117.10;;;;;;;2.49;100.00;98138.53;1666255;86;21067;-77
2022/12/06 00:11:31;;;;;;;200.75;109.78;;;;;;;2.51;100.00;98131.09;1699491;83;20945;-78
2022/12/06 00:14:00;;;;;;;187.43;101.97;;;;;;;2.51;100.00;98131.09;1718047;83;20938;-80
2022/12/06 00:16:26;;;;;;;197.45;109.95;;;;;;;2.52;100.00;98126.55;1718294;82;20987;-78
2022/12/06 00:18:52;;;;;;;195.82;110.45;;;;;;;2.50;100.00;98125.45;1718003;82;20870;-80
2022/12/06 00:21:24;;;;;;;215.45;120.30;;;;;;;2.51;100.00;98118.23;1718341;83;21280;-77
2022/12/06 00:23:58;;;;;;;230.03;130.00;;;;;;;2.52;100.00;98116.67;1718108;82;21077;-81
2022/12/06 00:26:24;;;;;;;239.85;130.20;;;;;;;2.54;100.00;98115.91;1717572;83;21064;-78
2022/12/06 00:28:55;;;;;;;222.17;124.45;;;;;;;2.55;100.00;98118.06;1718106;83;20970;-81
2022/12/06 00:31:22;;;;;;;202.78;109.00;;;;;;;2.56;100.00;98117.02;1718162;82;21060;-81
2022/12/06 00:33:48;;;;;;;207.20;106.90;;;;;;;2.52;100.00;98115.34;1717945;82;21056;-78
2022/12/06 00:36:17;;;;;;;205.67;115.37;;;;;;;2.50;100.00;98112.59;1717917;83;21844;-80
2022/12/06 00:38:43;;;;;;;206.30;108.83;;;;;;;2.51;100.00;98106.20;1718153;83;26877;-80
2022/12/06 00:41:16;;;;;;;192.43;105.05;;;;;;;2.50;100.00;98106.72;1713074;83;21544;-80
2022/12/06 00:43:42;;;;;;;199.10;105.78;;;;;;;2.49;100.00;98098.41;1713736;83;21014;-81
2022/12/06 00:46:12;;;;;;;194.70;108.95;;;;;;;2.50;100.00;98102.71;1714320;83;21073;-80
2022/12/06 00:48:38;;;;;;;204.68;110.32;;;;;;;2.50;100.00;98108.06;1707415;84;21176;-80
2022/12/06 00:51:04;;;;;;;197.30;110.10;;;;;;;2.51;100.00;98098.99;1729861;82;21567;-77
2022/12/06 00:53:30;;;;;;;191.55;103.45;;;;;;;2.53;100.00;98096.08;1707498;83;20957;-80
2022/12/06 00:55:56;;;;;;;197.98;108.65;;;;;;;2.52;100.00;98100.63;1729840;82;21036;-77
2022/12/06 00:58:22;;;;;;;186.05;103.55;;;;;;;2.51;100.00;98089.63;1707612;83;21053;-78
2022/12/06 01:00:48;;;;;;;195.62;106.12;;;;;;;2.52;100.00;98099.80;1727180;82;21184;-81
2022/12/06 01:03:14;;;;;;;183.95;100.58;;;;;;;2.49;100.00;98091.72;1715184;83;21021;-80
2022/12/06 01:05:47;;;;;;;189.72;102.67;;;;;;;2.50;100.00;98092.53;1715838;83;20970;-80
2022/12/06 01:08:14;;;;;;;180.15;100.33;;;;;;;2.49;100.00;98090.38;1715531;83;20979;-77
2022/12/06 01:10:39;;;;;;;183.50;97.90;;;;;;;2.49;100.00;98080.20;1715661;83;20971;-80
2022/12/06 01:13:06;;;;;;;172.95;95.87;;;;;;;2.51;100.00;98082.94;1715574;83;21885;-77
2022/12/06 01:15:34;;;;;;;178.55;97.57;;;;;;;2.53;100.00;98078.17;1715767;83;20988;-78
2022/12/06 01:18:00;;;;;;;186.92;97.90;;;;;;;2.56;100.00;98071.55;1689536;83;20974;-77
2022/12/06 01:20:26;;;;;;;184.72;99.60;;;;;;;2.55;100.00;98064.04;1715965;83;21583;-77
2022/12/06 01:22:52;;;;;;;173.72;93.55;;;;;;;2.54;100.00;98062.94;1715568;83;20839;-80
2022/12/06 01:25:18;;;;;;;176.37;90.35;;;;;;;2.55;100.00;98061.89;1715816;83;21877;-77
2022/12/06 01:27:43;;;;;;;162.57;87.55;;;;;;;2.57;100.00;98057.67;1715578;83;20954;-78
2022/12/06 01:30:10;;;;;;;145.90;84.47;;;;;;;2.57;100.00;98046.45;1715900;83;20943;-77
2022/12/06 01:32:36;;;;;;;154.30;83.45;;;;;;;2.58;100.00;98037.91;1715618;83;21215;-79
2022/12/06 01:35:02;;;;;;;153.85;82.62;;;;;;;2.60;100.00;98033.13;1715741;83;20915;-78
2022/12/06 01:37:28;;;;;;;151.37;84.45;;;;;;;2.63;100.00;98022.78;1715950;83;21439;-80
2022/12/06 01:39:54;;;;;;;158.00;85.12;;;;;;;2.64;100.00;98021.73;1717684;83;20977;-80
2022/12/06 01:42:20;;;;;;;154.15;85.28;;;;;;;2.64;100.00;98015.04;1702202;84;21100;-80
2022/12/06 01:44:54;;;;;;;160.03;84.60;;;;;;;2.64;100.00;98016.91;1722023;83;20934;-80
2022/12/06 01:47:37;;;;;;;162.40;88.80;;;;;;;2.65;100.00;98018.53;1702353;84;20986;-77
2022/12/06 01:50:18;;;;;;;163.82;87.40;;;;;;;2.66;100.00;98010.30;1721806;83;21084;-77
2022/12/06 01:53:05;;;;;;;155.35;81.95;;;;;;;2.69;100.00;98010.36;1702379;84;21010;-81
2022/12/06 01:55:34;;;;;;;171.98;94.90;;;;;;;2.70;100.00;98008.78;1721850;83;21486;-80
2022/12/06 01:58:05;;;;;;;165.85;95.20;;;;;;;2.69;100.00;98002.33;1702507;84;21441;-80
2022/12/06 02:00:31;;;;;;;172.13;93.35;;;;;;;2.66;100.00;98001.45;1722610;83;21461;-80
2022/12/06 02:02:57;;;;;;;171.37;92.20;;;;;;;2.66;100.00;98000.94;1729860;83;21106;-77
2022/12/06 02:05:23;;;;;;;169.57;92.30;;;;;;;2.66;100.00;97998.27;1730247;83;20892;-78
2022/12/06 02:07:49;;;;;;;160.07;91.90;;;;;;;2.67;100.00;97995.06;1677787;83;21023;-77
2022/12/06 02:10:15;;;;;;;165.03;88.65;;;;;;;2.67;100.00;97991.05;1730292;83;20920;-78
2022/12/06 02:12:41;;;;;;;153.18;82.45;;;;;;;2.65;100.00;97988.61;1729872;83;21083;-77
2022/12/06 02:15:08;;;;;;;149.32;84.05;;;;;;;2.64;100.00;97974.91;1730259;83;21042;-80
2022/12/06 02:17:58;;;;;;;158.40;87.97;;;;;;;2.62;100.00;97973.52;1729972;82;21062;-80
2022/12/06 02:20:31;;;;;;;167.28;89.83;;;;;;;2.62;100.00;97972.99;1730132;83;21463;-80
2022/12/06 02:23:35;;;;;;;156.95;85.50;;;;;;;2.59;100.00;97953.40;1729871;83;21071;-77
2022/12/06 02:26:16;;;;;;;142.82;78.30;;;;;;;2.59;100.00;97944.03;1729870;83;21012;-80
2022/12/06 02:29:19;;;;;;;167.93;94.60;;;;;;;2.54;100.00;97930.00;1730100;83;21440;-81
2022/12/06 02:31:51;;;;;;;170.17;95.85;;;;;;;2.55;100.00;97930.81;1729472;83;21019;-77
2022/12/06 02:34:41;;;;;;;182.02;98.07;;;;;;;2.59;100.00;97939.20;1720223;83;20984;-80
2022/12/06 02:37:19;;;;;;;173.75;92.22;;;;;;;2.63;100.00;97944.38;1730096;83;21389;-81
2022/12/06 02:39:50;;;;;;;168.52;93.05;;;;;;;2.65;100.00;97939.60;1722075;82;21074;-81
2022/12/06 02:42:26;;;;;;;178.35;97.80;;;;;;;2.65;100.00;97944.45;1672600;84;21202;-78
2022/12/06 02:44:59;;;;;;;168.55;92.85;;;;;;;2.66;100.00;97943.94;1700886;84;21051;-81
2022/12/06 02:47:32;;;;;;;157.27;88.92;;;;;;;2.65;100.00;97938.27;1700773;84;21071;-80
2022/12/06 02:49:57;;;;;;;173.53;95.72;;;;;;;2.64;100.00;97927.27;1700875;83;21436;-81
2022/12/06 02:52:25;;;;;;;176.30;98.03;;;;;;;2.64;100.00;97933.44;1700992;84;21392;-77
2022/12/06 02:54:53;;;;;;;176.78;96.67;;;;;;;2.66;100.00;97926.02;1700970;84;21140;-80
2022/12/06 02:57:22;;;;;;;169.65;96.45;;;;;;;2.68;100.00;97916.42;1700876;84;21043;-80
2022/12/06 02:59:52;;;;;;;176.02;96.60;;;;;;;2.68;100.00;97918.56;1673707;84;21044;-78
2022/12/06 03:02:18;;;;;;;178.87;98.62;;;;;;;2.69;100.00;97912.70;1724728;83;20969;-80
2022/12/06 03:05:11;;;;;;;174.53;93.20;;;;;;;2.68;100.00;97909.73;1730396;82;20888;-80
2022/12/06 03:07:43;;;;;;;181.65;99.97;;;;;;;2.68;100.00;97908.39;1728033;83;21150;-81
2022/12/06 03:10:32;;;;;;;175.35;99.62;;;;;;;2.71;100.00;97909.25;1729340;83;21028;-77
2022/12/06 03:13:32;;;;;;;177.97;98.15;;;;;;;2.73;100.00;97903.14;1729900;83;21019;-77
2022/12/06 03:16:02;;;;;;;170.68;91.20;;;;;;;2.74;100.00;97902.12;1729828;82;21477;-77
2022/12/06 03:18:42;;;;;;;177.10;93.03;;;;;;;2.72;100.00;97898.31;1729937;83;20952;-80
2022/12/06 03:21:11;;;;;;;170.60;93.67;;;;;;;2.67;100.00;97900.89;1730220;83;21155;-78
2022/12/06 03:23:41;;;;;;;161.92;89.83;;;;;;;2.63;100.00;97893.55;1729387;83;21430;-77
2022/12/06 03:26:09;;;;;;;163.18;87.15;;;;;;;2.62;100.00;97887.38;1729947;83;20982;-78
2022/12/06 03:28:35;;;;;;;182.17;96.10;;;;;;;2.62;100.00;97885.23;1730027;82;21360;-78
2022/12/06 03:31:04;;;;;;;156.70;83.58;;;;;;;2.62;100.00;97875.34;1701269;83;21027;-77
2022/12/06 03:33:31;;;;;;;153.38;85.45;;;;;;;2.64;100.00;97877.78;1730019;82;22022;-80
2022/12/06 03:35:57;;;;;;;148.55;79.30;;;;;;;2.61;100.00;97884.94;1730067;83;20984;-80
2022/12/06 03:38:35;;;;;;;143.72;79.97;;;;;;;2.61;100.00;97883.60;1729940;83;20876;-80
2022/12/06 03:41:04;;;;;;;153.62;82.35;;;;;;;2.60;100.00;97885.47;1729782;83;20965;-81
2022/12/06 03:43:29;;;;;;;173.20;88.55;;;;;;;2.62;100.00;97877.20;1729628;83;20968;-80
2022/12/06 03:46:15;;;;;;;147.20;76.65;;;;;;;2.63;100.00;97880.98;1707746;84;21178;-78
2022/12/06 03:48:51;;;;;;;156.87;82.27;;;;;;;2.66;100.00;97880.53;1729645;82;20941;-77
2022/12/06 03:51:24;;;;;;;146.93;77.15;;;;;;;2.66;100.00;97877.05;1707760;83;21041;-78
2022/12/06 03:53:56;;;;;;;156.60;82.80;;;;;;;2.67;100.00;97871.45;1729360;83;20993;-77
2022/12/06 03:56:22;;;;;;;150.82;81.25;;;;;;;2.67;100.00;97867.97;1680297;84;21461;-77
2022/12/06 03:58:48;;;;;;;138.62;76.65;;;;;;;2.69;100.00;97864.00;1729707;83;21093;-78
2022/12/06 04:01:14;;;;;;;143.47;78.92;;;;;;;2.70;100.00;97860.28;1710853;83;21066;-81
2022/12/06 04:03:40;;;;;;;143.47;76.53;;;;;;;2.71;100.00;97867.78;1716033;83;21620;-81
2022/12/06 04:06:07;;;;;;;137.57;76.07;;;;;;;2.72;100.00;97871.55;1716367;83;20950;-81
2022/12/06 04:08:33;;;;;;;147.25;78.60;;;;;;;2.74;100.00;97861.45;1715955;83;21431;-78
2022/12/06 04:10:59;;;;;;;150.42;86.02;;;;;;;2.78;100.00;97864.47;1716255;83;21103;-82
2022/12/06 04:13:25;;;;;;;159.12;88.75;;;;;;;2.81;100.00;97862.13;1716018;83;21587;-81
2022/12/06 04:15:57;;;;;;;166.73;91.28;;;;;;;2.85;100.00;97870.52;1716244;83;20950;-80
2022/12/06 04:18:23;;;;;;;178.60;96.82;;;;;;;2.86;100.00;97870.00;1715957;83;20967;-81
2022/12/06 04:23:47;;;;;;;166.85;89.55;;;;;;;2.83;100.00;97860.58;1715954;83;21798;-81
2022/12/06 04:26:19;;;;;;;158.18;88.82;;;;;;;2.81;100.00;97857.30;1716277;83;25775;-80
2022/12/06 04:39:43;;;;;;;154.53;81.63;;;;;;;2.79;100.00;97848.70;1712336;83;21005;-78
2022/12/06 04:44:54;;;;;;;155.18;81.22;;;;;;;2.79;100.00;97845.50;1702089;84;21081;-81
2022/12/06 04:47:19;;;;;;;155.15;85.97;;;;;;;2.85;100.00;97837.07;1722382;83;21540;-80
2022/12/06 04:49:45;;;;;;;158.18;85.10;;;;;;;2.85;100.00;97837.07;1702442;84;21366;-77
2022/12/06 04:52:11;;;;;;;172.57;89.62;;;;;;;2.88;100.00;97823.20;1722005;83;21008;-80
2022/12/06 04:54:37;;;;;;;163.18;93.75;;;;;;;2.91;100.00;97827.30;1702395;84;20851;-77
2022/12/06 04:57:09;;;;;;;163.85;91.12;;;;;;;2.92;100.00;97828.39;1722073;83;20973;-80
2022/12/06 04:59:31;;;;;;;159.55;92.35;;;;;;;2.95;100.00;97831.12;1701813;84;20993;-80
2022/12/06 05:01:57;;;;;;;153.68;85.70;;;;;;;2.97;100.00;97825.00;1717820;83;21220;-80
2022/12/06 05:04:23;;;;;;;159.85;88.75;;;;;;;2.95;100.00;97821.75;1715572;83;20937;-77
2022/12/06 05:06:49;;;;;;;183.00;98.10;;;;;;;2.96;100.00;97827.39;1715804;83;20867;-81
2022/12/06 05:09:15;;;;;;;173.70;97.72;;;;;;;2.98;100.00;97823.42;1715623;83;20875;-81
2022/12/06 05:11:41;;;;;;;180.37;99.80;;;;;;;2.99;100.00;97819.72;1716020;83;20939;-77
2022/12/06 05:14:06;;;;;;;160.10;87.70;;;;;;;3.02;100.00;97817.08;1715566;83;21487;-77
2022/12/06 05:16:32;;;;;;;163.15;90.67;;;;;;;3.01;100.00;97816.27;1715897;83;21660;-77
2022/12/06 05:18:58;;;;;;;156.12;87.65;;;;;;;3.00;100.00;97811.16;1715645;83;20911;-78
2022/12/06 05:21:24;;;;;;;153.78;81.80;;;;;;;2.98;100.00;97812.71;1715916;83;21647;-81
2022/12/06 05:23:54;;;;;;;156.67;84.92;;;;;;;2.97;100.00;97816.97;1715732;83;20906;-77
2022/12/06 05:26:22;;;;;;;150.50;85.03;;;;;;;2.93;100.00;97808.61;1715980;83;21419;-77
2022/12/06 05:28:48;;;;;;;156.52;85.75;;;;;;;2.90;100.00;97804.23;1715603;83;21459;-78
2022/12/06 05:31:14;;;;;;;146.70;78.80;;;;;;;2.90;100.00;97808.25;1715501;83;20894;-80
2022/12/06 05:33:40;;;;;;;141.92;77.65;;;;;;;2.90;100.00;97814.94;1715622;83;20983;-80
2022/12/06 05:36:13;;;;;;;149.53;80.62;;;;;;;2.92;100.00;97802.97;1715841;83;20907;-77
2022/12/06 05:38:39;;;;;;;147.95;80.10;;;;;;;2.95;100.00;97801.15;1715669;83;21158;-80
2022/12/06 05:41:06;;;;;;;157.50;84.13;;;;;;;2.99;100.00;97810.84;1720950;83;21626;-80
2022/12/06 05:43:32;;;;;;;158.85;87.10;;;;;;;3.01;100.00;97812.78;1702359;84;21061;-77
2022/12/06 05:45:58;;;;;;;167.57;89.17;;;;;;;3.02;100.00;97807.72;1722066;83;20932;-77
2022/12/06 05:48:24;;;;;;;158.37;86.85;;;;;;;2.98;100.00;97788.62;1702670;84;20896;-80
2022/12/06 05:50:50;;;;;;;147.95;82.05;;;;;;;2.98;100.00;97788.62;1722031;83;20929;-77
2022/12/06 05:53:16;;;;;;;153.93;81.15;;;;;;;3.01;100.00;97800.73;1702516;84;21066;-80
2022/12/06 05:55:42;;;;;;;147.13;80.92;;;;;;;2.99;100.00;97796.13;1722034;83;20989;-80
2022/12/06 05:58:08;;;;;;;138.45;78.67;;;;;;;2.99;100.00;97798.80;1703151;83;21386;-78
2022/12/06 06:00:34;;;;;;;137.07;75.42;;;;;;;2.99;100.00;97792.95;1714168;82;20964;-78
2022/12/06 06:03:00;;;;;;;139.65;75.95;;;;;;;2.99;100.00;97791.61;1697576;82;21393;-77
2022/12/06 06:05:26;;;;;;;141.68;77.95;;;;;;;2.98;100.00;97793.97;1715553;82;20901;-80
2022/12/06 06:07:52;;;;;;;142.43;77.25;;;;;;;2.97;100.00;97788.86;1710452;83;20905;-77
2022/12/06 06:10:18;;;;;;;143.82;77.27;;;;;;;2.99;100.00;97794.29;1685978;85;21550;-81
2022/12/06 06:12:44;;;;;;;151.68;84.35;;;;;;;3.02;100.00;97789.79;1692830;83;20988;-80
2022/12/06 06:15:11;;;;;;;150.78;81.75;;;;;;;3.06;100.00;97792.80;1700365;84;21653;-77
2022/12/06 06:17:37;;;;;;;147.70;86.50;;;;;;;3.07;100.00;97784.52;1719467;82;21522;-78
2022/12/06 06:20:04;;;;;;;172.53;86.17;;;;;;;3.10;100.00;97781.91;1713281;83;20926;-80
2022/12/06 06:22:32;;;;;;;169.60;95.42;;;;;;;3.13;100.00;97783.30;1713454;83;21457;-78
2022/12/06 06:24:58;;;;;;;157.30;88.78;;;;;;;3.10;100.00;97781.39;1713435;83;21463;-77
2022/12/06 06:27:24;;;;;;;146.30;82.92;;;;;;;3.02;100.00;97777.74;1724336;82;21035;-81
2022/12/06 06:29:50;;;;;;;157.90;84.85;;;;;;;3.02;100.00;97779.61;1705218;83;21015;-79
2022/12/06 06:32:16;;;;;;;155.45;82.85;;;;;;;3.02;100.00;97772.39;1722515;82;20971;-78
2022/12/06 06:34:42;;;;;;;151.42;84.55;;;;;;;3.06;100.00;97776.73;1745814;82;20962;-77
2022/12/06 06:37:08;;;;;;;156.07;89.00;;;;;;;3.07;100.00;97771.13;1746133;82;20962;-81
2022/12/06 06:39:34;;;;;;;147.13;84.62;;;;;;;3.09;100.00;97774.41;1742661;82;21850;-80
2022/12/06 06:42:00;;;;;;;174.77;97.00;;;;;;;3.11;100.00;97772.30;1699098;83;21475;-77
2022/12/06 06:44:26;;;;;;;183.50;103.83;;;;;;;3.13;100.00;97766.70;1687642;85;20956;-77
2022/12/06 06:46:52;;;;;;;192.82;102.05;;;;;;;3.15;100.00;97773.16;1701227;82;20901;-80
2022/12/06 06:49:18;;;;;;;189.50;102.17;;;;;;;3.15;100.00;97774.49;1745702;82;20994;-80
2022/12/06 06:51:44;;;;;;;188.27;100.38;;;;;;;3.18;100.00;97779.39;1747727;80;21326;-81
2022/12/06 06:54:11;;;;;;;192.80;104.53;;;;;;;3.18;100.00;97765.48;1717475;82;21368;-81
2022/12/06 06:56:37;;;;;;;190.97;103.62;;;;;;;3.17;100.00;97769.20;1712245;82;21438;-78
2022/12/06 06:59:03;;;;;;;201.77;105.47;;;;;;;3.20;100.00;97768.72;1729935;82;21264;-80
2022/12/06 07:01:29;;;;;;;195.60;103.67;;;;;;;3.18;100.00;97755.30;1722208;82;21056;-77
2022/12/06 07:03:55;;;;;;;171.65;97.00;;;;;;;3.22;100.00;97757.77;1716538;82;22021;-77
2022/12/06 07:06:21;;;;;;;160.22;89.03;;;;;;;3.24;100.00;97754.31;1707698;83;21025;-77
2022/12/06 07:08:47;;;;;;;153.00;87.02;;;;;;;3.22;100.00;97749.20;1716766;82;20882;-79
2022/12/06 07:11:13;;;;;;;154.10;87.67;;;;;;;3.23;100.00;97746.00;1709922;83;20878;-77
2022/12/06 07:13:40;;;;;;;152.72;88.50;;;;;;;3.24;100.00;97748.44;1713815;83;21595;-77
2022/12/06 07:16:08;;;;;;;156.07;82.82;;;;;;;3.23;100.00;97744.13;1693486;83;21493;-81
2022/12/06 07:18:33;;;;;;;162.15;87.60;;;;;;;3.23;100.00;97737.97;1664744;84;20987;-81
2022/12/06 07:21:05;;;;;;;158.97;89.25;;;;;;;3.21;100.00;97737.40;1700155;82;20909;-81
2022/12/06 07:23:32;;;;;;;160.22;89.67;;;;;;;3.21;100.00;97728.84;1696039;83;21059;-81
2022/12/06 07:26:12;;;;;;;162.57;89.70;;;;;;;3.24;100.00;97742.27;1704415;82;21478;-81
2022/12/06 07:28:39;;;;;;;159.35;86.12;;;;;;;3.28;100.00;97738.08;1702881;82;21533;-77
2022/12/06 07:31:21;;;;;;;143.13;75.83;;;;;;;3.29;100.00;97734.34;1704882;82;21035;-81
2022/12/06 07:33:47;;;;;;;120.55;69.12;;;;;;;3.32;100.00;97736.53;1701775;83;21417;-81
2022/12/06 07:36:15;;;;;;;118.15;70.67;;;;;;;3.34;100.00;97737.13;1690811;83;21095;-81
2022/12/06 07:38:42;;;;;;;124.33;68.52;;;;;;;3.33;100.00;97728.77;1716484;82;20986;-77
2022/12/06 07:46:40;;;;;;;102.53;56.18;;;;;;;3.37;100.00;97731.28;1717638;80;20995;-81
2022/12/06 07:49:06;;;;;;;106.30;59.18;;;;;;;3.41;100.00;97736.42;1747771;80;20882;-81
2022/12/06 07:51:32;;;;;;;100.95;57.50;;;;;;;3.46;100.00;97733.04;1729674;80;20918;-81
2022/12/06 07:53:58;;;;;;;109.95;64.65;;;;;;;3.49;100.00;97733.36;1715697;82;21145;-80
2022/12/06 07:56:24;;;;;;;108.87;64.42;;;;;;;3.53;100.00;97735.05;1702074;83;21052;-77
2022/12/06 07:58:50;;;;;;;110.17;63.35;;;;;;;3.56;100.00;97730.53;1701923;83;20944;-81
2022/12/06 08:01:16;;;;;;;117.55;72.08;;;;;;;3.58;100.00;97722.53;1697357;83;21039;-78
2022/12/06 08:03:42;;;;;;;119.15;67.62;;;;;;;3.61;100.00;97722.06;1703218;83;20945;-78
2022/12/06 08:06:08;;;;;;;95.12;54.25;;;;;;;3.63;100.00;97719.14;1702118;83;21056;-78
2022/12/06 08:08:34;;;;;;;97.57;58.35;;;;;;;3.64;100.00;97724.78;1699808;82;20964;-81
2022/12/06 08:11:01;;;;;;;101.33;57.98;;;;;;;3.61;100.00;97730.11;1695574;82;21494;-81
2022/12/06 08:13:27;;;;;;;120.62;69.15;;;;;;;3.63;100.00;97725.84;1724467;80;21007;-80
2022/12/06 08:15:53;;;;;;;136.35;72.78;;;;;;;3.62;100.00;97722.34;1695267;82;20965;-81
2022/12/06 08:18:19;;;;;;;136.20;77.72;;;;;;;3.65;100.00;97731.77;1698736;82;22298;-81
2022/12/06 08:20:45;;;;;;;128.93;75.15;;;;;;;3.67;100.00;97728.30;1704573;82;20897;-81
2022/12/06 08:23:11;;;;;;;143.75;76.15;;;;;;;3.70;100.00;97735.88;1714171;82;20957;-81
2022/12/06 08:25:37;;;;;;;141.62;78.52;;;;;;;3.70;100.00;97733.73;1695898;82;20874;-77
2022/12/06 08:28:03;;;;;;;136.40;79.85;;;;;;;3.67;100.00;97733.16;1719947;81;21050;-81
2022/12/06 08:30:29;;;;;;;145.72;82.27;;;;;;;3.66;100.00;97728.84;1703031;82;21075;-78
2022/12/06 08:32:55;;;;;;;145.45;82.22;;;;;;;3.65;100.00;97731.23;1702765;82;20909;-81
2022/12/06 08:35:21;;;;;;;136.45;80.77;;;;;;;3.68;100.00;97740.67;1699599;83;21633;-81
2022/12/06 08:37:47;;;;;;;152.17;83.97;;;;;;;3.68;100.00;97734.78;1697076;83;20885;-81
2022/12/06 08:40:13;;;;;;;167.20;92.25;;;;;;;3.73;100.00;97731.36;1708583;82;20992;-77
2022/12/06 08:42:40;;;;;;;184.80;99.42;;;;;;;3.75;100.00;97735.14;1706177;83;21968;-77
2022/12/06 08:45:07;;;;;;;207.32;107.67;;;;;;;3.76;100.00;97738.94;1701642;81;21452;-77
2022/12/06 08:47:33;;;;;;;194.05;109.63;;;;;;;3.77;100.00;97737.07;1719728;81;21044;-78
2022/12/06 08:49:59;;;;;;;194.37;105.87;;;;;;;3.79;100.00;97737.11;1719426;81;20847;-77
2022/12/06 08:52:25;;;;;;;200.10;106.15;;;;;;;3.80;100.00;97740.06;1712185;83;20976;-77
2022/12/06 08:54:51;;;;;;;199.02;109.80;;;;;;;3.80;100.00;97738.73;1701795;82;21167;-80
2022/12/06 08:57:17;;;;;;;181.05;102.20;;;;;;;3.80;100.00;97735.23;1709278;83;20908;-77
2022/12/06 08:59:43;;;;;;;140.85;75.85;;;;;;;3.81;100.00;97731.50;1704047;81;20988;-81
2022/12/06 09:02:11;;;;;;;145.40;84.25;;;;;;;3.83;100.00;97736.08;1703285;81;20885;-77
2022/12/06 09:04:37;;;;;;;118.10;72.15;;;;;;;3.87;100.00;97738.57;1702333;81;20973;-77
2022/12/06 09:07:03;;;;;;;126.35;71.25;;;;;;;3.87;100.00;97736.70;1703044;81;22085;-80
2022/12/06 09:09:29;;;;;;;127.00;69.22;;;;;;;3.86;100.00;97728.91;1703590;81;20897;-80
2022/12/06 09:11:55;;;;;;;126.10;67.27;;;;;;;3.87;100.00;97724.64;1703905;83;21004;-80
2022/12/06 09:14:21;;;;;;;109.78;63.02;;;;;;;3.88;100.00;97720.91;1699222;82;20915;-80
2022/12/06 09:16:47;;;;;;;111.52;63.92;;;;;;;3.90;100.00;97718.78;1694882;82;21548;-80
2022/12/06 09:19:13;;;;;;;167.82;105.63;;;;;;;3.90;100.00;97716.10;1693173;82;21072;-77
2022/12/06 09:21:41;;;;;;;132.35;80.53;;;;;;;3.93;100.00;97717.47;1699294;83;21110;-77
2022/12/06 09:24:15;;;;;;;113.35;70.65;;;;;;;3.96;100.00;97708.43;1695602;83;21178;-77
2022/12/06 09:26:41;;;;;;;137.35;84.97;;;;;;;3.98;100.00;97712.20;1695035;82;21664;-77
2022/12/06 09:29:07;;;;;;;120.42;71.85;;;;;;;4.02;100.00;97703.16;1698852;82;21083;-77
2022/12/06 09:31:38;;;;;;;102.87;59.70;;;;;;;4.01;100.00;97699.63;1700231;83;21135;-77
2022/12/06 09:34:01;;;;;;;105.65;61.35;;;;;;;4.06;100.00;97695.70;1712713;82;21068;-82
2022/12/06 09:36:28;;;;;;;108.03;63.95;;;;;;;4.07;100.00;97702.69;1699186;83;20930;-77
2022/12/06 09:39:08;;;;;;;128.62;74.00;;;;;;;4.10;100.00;97700.03;1697551;82;21050;-77
2022/12/06 09:41:45;;;;;;;140.40;82.27;;;;;;;4.12;100.00;97697.94;1709100;82;20966;-77
2022/12/06 09:44:41;;;;;;;143.00;86.02;;;;;;;4.14;100.00;97691.80;1697455;82;21448;-77
2022/12/06 09:47:40;;;;;;;160.20;93.03;;;;;;;4.18;100.00;97692.91;1701029;82;21107;-77
2022/12/06 09:50:51;;;;;;;164.07;98.80;;;;;;;4.21;100.00;97689.23;1699554;82;21560;-81
2022/12/06 09:53:28;;;;;;;159.75;87.17;;;;;;;4.27;100.00;97690.09;1720310;82;21370;-80
2022/12/06 09:56:02;;;;;;;137.80;82.42;;;;;;;4.30;100.00;97690.15;1744622;80;21148;-81
2022/12/06 09:59:04;;;;;;;109.45;66.02;;;;;;;4.32;100.00;97689.37;1706074;82;21350;-77
2022/12/06 10:01:59;;;;;;;123.15;69.35;;;;;;;4.34;100.00;97683.22;1698520;82;21087;-77
2022/12/06 10:05:05;;;;;;;126.05;79.53;;;;;;;4.37;100.00;97678.19;1694088;83;21122;-80
2022/12/06 10:07:42;;;;;;;150.93;89.80;;;;;;;4.36;100.00;97675.72;1701323;82;21069;-77
2022/12/06 10:10:47;;;;;;;142.82;80.20;;;;;;;4.38;100.00;97674.97;1703946;83;21033;-77
2022/12/06 10:13:58;;;;;;;132.10;75.17;;;;;;;4.38;100.00;97666.92;1708175;82;21177;-77
2022/12/06 10:16:48;;;;;;;126.05;75.50;;;;;;;4.40;100.00;97662.92;1706495;82;21006;-81
2022/12/06 10:19:34;;;;;;;138.22;76.47;;;;;;;4.43;100.00;97654.89;1698635;83;20996;-77
2022/12/06 10:22:06;;;;;;;145.53;80.12;;;;;;;4.43;100.00;97652.22;1728516;81;21463;-77
2022/12/06 10:25:14;;;;;;;148.40;91.08;;;;;;;4.48;100.00;97649.61;1720060;81;21421;-80
2022/12/06 10:27:53;;;;;;;;;;;;;;;4.49;100.00;97649.88;1736443;82;21370;-77
2022/12/06 10:30:19;;;;;;;121.85;73.28;;;;;;;4.46;100.00;97653.08;1722993;80;20193;-77
2022/12/06 10:33:05;;;;;;;124.72;76.37;;;;;;;4.45;100.00;97652.27;1725967;81;21604;-77
2022/12/06 10:35:57;;;;;;;113.08;68.25;;;;;;;4.51;100.00;97649.09;1727504;81;21068;-77
2022/12/06 10:38:36;;;;;;;105.90;63.48;;;;;;;4.56;100.00;97638.97;1739147;80;21108;-81
2022/12/06 10:41:35;;;;;;;115.12;69.15;;;;;;;4.60;100.00;97641.42;1720526;81;21330;-81
2022/12/06 10:44:13;;;;;;;113.37;66.82;;;;;;;4.62;100.00;97638.79;1718265;81;21019;-81
2022/12/06 10:47:07;;;;;;;101.27;61.60;;;;;;;4.68;100.00;97636.95;1726066;82;21053;-80
2022/12/06 10:49:54;;;;;;;102.95;60.00;;;;;;;4.69;100.00;97627.84;1721301;82;21109;-80
2022/12/06 10:52:45;;;;;;;108.22;60.95;;;;;;;4.69;100.00;97639.39;1723713;81;21037;-77
2022/12/06 10:55:18;;;;;;;114.95;66.97;;;;;;;4.69;100.00;97632.67;1720948;80;21432;-77
2022/12/06 10:58:10;;;;;;;105.55;63.50;;;;;;;4.66;100.00;97634.53;1720769;82;21851;-81
2022/12/06 11:00:50;;;;;;;98.50;58.65;;;;;;;4.65;100.00;97638.28;1716839;80;21107;-80
2022/12/06 11:03:22;;;;;;;109.52;61.48;;;;;;;4.60;100.00;97638.20;1719809;81;21120;-81
2022/12/06 11:05:58;;;;;;;144.68;74.67;;;;;;;4.59;100.00;97635.78;1702097;82;21449;-77
2022/12/06 11:08:37;;;;;;;124.95;62.13;;;;;;;4.60;100.00;97638.20;1693714;83;21032;-81
2022/12/06 11:11:05;;;;;;;106.90;56.35;;;;;;;4.62;100.00;97639.32;1726736;80;21027;-81
2022/12/06 11:13:47;;;;;;;101.60;56.75;;;;;;;4.61;100.00;97637.14;1719354;80;21034;-81
2022/12/06 11:16:40;;;;;;;93.60;50.20;;;;;;;4.61;100.00;97632.30;1714578;82;20989;-77
2022/12/06 11:19:32;;;;;;;96.78;56.35;;;;;;;4.59;100.00;97627.73;1693077;82;21553;-77
2022/12/06 11:22:09;;;;;;;195.25;141.75;;;;;;;4.58;100.00;97636.31;1692815;82;21142;-80
2022/12/06 11:24:39;;;;;;;133.32;90.47;;;;;;;4.56;100.00;97632.27;1695449;83;20988;-81
2022/12/06 11:27:15;;;;;;;103.30;66.00;;;;;;;4.57;100.00;97630.66;1707466;82;21072;-77
2022/12/06 11:29:42;;;;;;;73.40;46.23;;;;;;;4.55;100.00;97622.59;1688952;83;21091;-77
2022/12/06 11:32:08;;;;;;;81.02;54.65;;;;;;;4.54;100.00;97621.78;1721778;80;21031;-80
2022/12/06 11:34:43;;;;;;;82.90;49.30;;;;;;;4.58;100.00;97624.77;1719500;82;20987;-77
2022/12/06 11:37:18;;;;;;;67.25;44.05;;;;;;;4.59;100.00;97623.17;1706037;82;20995;-77
2022/12/06 11:39:44;;;;;;;69.12;43.45;;;;;;;4.58;100.00;97615.37;1707106;82;22901;-77
2022/12/06 11:42:12;;;;;;;67.82;41.15;;;;;;;4.61;100.00;97621.57;1718963;82;21076;-80
2022/12/06 11:44:47;;;;;;;70.22;42.40;;;;;;;4.64;100.00;97626.45;1698961;81;20990;-81
2022/12/06 11:47:19;;;;;;;74.20;46.37;;;;;;;4.67;100.00;97619.23;1723535;80;21023;-81
2022/12/06 11:49:45;;;;;;;74.85;42.67;;;;;;;4.65;100.00;97614.13;1707053;82;21103;-81